sensor_id;sensor_type;location;lat;lon;timestamp;temperature;humidity
48208;DHT22;33997;53.278;9.708;2022-11-18T00:01:28;2.80;98.10
48208;DHT22;33997;53.278;9.708;2022-11-18T00:03:53;2.80;98.00
48208;DHT22;33997;53.278;9.708;2022-11-18T00:06:21;2.80;98.00
48208;DHT22;33997;53.278;9.708;2022-11-18T00:08:47;2.80;97.90
48208;DHT22;33997;53.278;9.708;2022-11-18T00:11:18;2.80;98.00
48208;DHT22;33997;53.278;9.708;2022-11-18T00:14:23;2.70;97.90
48208;DHT22;33997;53.278;9.708;2022-11-18T00:16:53;2.70;97.90
48208;DHT22;33997;53.278;9.708;2022-11-18T00:19:20;2.70;97.90
48208;DHT22;33997;53.278;9.708;2022-11-18T00:21:46;2.70;97.80
48208;DHT22;33997;53.278;9.708;2022-11-18T00:24:11;2.70;97.90
48208;DHT22;33997;53.278;9.708;2022-11-18T00:26:37;2.70;97.80
48208;DHT22;33997;53.278;9.708;2022-11-18T00:29:03;2.70;97.70
48208;DHT22;33997;53.278;9.708;2022-11-18T00:31:29;2.70;97.90
48208;DHT22;33997;53.278;9.708;2022-11-18T00:33:55;2.60;97.90
48208;DHT22;33997;53.278;9.708;2022-11-18T00:36:20;2.60;97.80
48208;DHT22;33997;53.278;9.708;2022-11-18T00:38:46;2.60;97.90
48208;DHT22;33997;53.278;9.708;2022-11-18T00:41:13;2.70;97.90
48208;DHT22;33997;53.278;9.708;2022-11-18T00:43:39;2.70;97.90
48208;DHT22;33997;53.278;9.708;2022-11-18T00:46:07;2.60;97.80
48208;DHT22;33997;53.278;9.708;2022-11-18T00:48:33;2.60;97.70
48208;DHT22;33997;53.278;9.708;2022-11-18T00:51:10;2.60;97.80
48208;DHT22;33997;53.278;9.708;2022-11-18T00:53:36;2.60;97.90
48208;DHT22;33997;53.278;9.708;2022-11-18T00:56:01;2.60;98.00
48208;DHT22;33997;53.278;9.708;2022-11-18T00:58:27;2.60;98.00
48208;DHT22;33997;53.278;9.708;2022-11-18T01:00:54;2.60;98.00
48208;DHT22;33997;53.278;9.708;2022-11-18T01:03:20;2.60;98.00
48208;DHT22;33997;53.278;9.708;2022-11-18T01:05:46;2.50;97.90
48208;DHT22;33997;53.278;9.708;2022-11-18T01:08:12;2.50;97.90
48208;DHT22;33997;53.278;9.708;2022-11-18T01:10:39;2.50;97.80
48208;DHT22;33997;53.278;9.708;2022-11-18T01:13:05;2.40;97.70
48208;DHT22;33997;53.278;9.708;2022-11-18T01:15:46;2.50;97.70
48208;DHT22;33997;53.278;9.708;2022-11-18T01:18:12;2.50;97.70
48208;DHT22;33997;53.278;9.708;2022-11-18T01:20:37;2.50;97.60
48208;DHT22;33997;53.278;9.708;2022-11-18T01:23:03;2.40;97.70
48208;DHT22;33997;53.278;9.708;2022-11-18T01:25:29;2.40;97.70
48208;DHT22;33997;53.278;9.708;2022-11-18T01:27:55;2.40;97.80
48208;DHT22;33997;53.278;9.708;2022-11-18T01:30:21;2.40;97.90
48208;DHT22;33997;53.278;9.708;2022-11-18T01:32:47;2.40;97.80
48208;DHT22;33997;53.278;9.708;2022-11-18T01:35:13;2.40;97.90
48208;DHT22;33997;53.278;9.708;2022-11-18T01:37:39;2.40;98.00
48208;DHT22;33997;53.278;9.708;2022-11-18T01:40:06;2.30;97.80
48208;DHT22;33997;53.278;9.708;2022-11-18T01:42:32;2.40;98.00
48208;DHT22;33997;53.278;9.708;2022-11-18T01:45:14;2.30;97.90
48208;DHT22;33997;53.278;9.708;2022-11-18T01:47:55;2.30;97.80
48208;DHT22;33997;53.278;9.708;2022-11-18T01:50:23;2.30;97.90
48208;DHT22;33997;53.278;9.708;2022-11-18T01:52:50;2.30;97.90
48208;DHT22;33997;53.278;9.708;2022-11-18T01:55:22;2.30;97.90
48208;DHT22;33997;53.278;9.708;2022-11-18T01:57:49;2.30;97.90
48208;DHT22;33997;53.278;9.708;2022-11-18T02:00:16;2.30;97.90
48208;DHT22;33997;53.278;9.708;2022-11-18T02:02:41;2.30;98.00
48208;DHT22;33997;53.278;9.708;2022-11-18T02:05:09;2.30;97.90
48208;DHT22;33997;53.278;9.708;2022-11-18T02:07:40;2.30;97.90
48208;DHT22;33997;53.278;9.708;2022-11-18T02:10:08;2.20;97.90
48208;DHT22;33997;53.278;9.708;2022-11-18T02:12:34;2.30;97.90
48208;DHT22;33997;53.278;9.708;2022-11-18T02:15:02;2.20;97.80
48208;DHT22;33997;53.278;9.708;2022-11-18T02:17:51;2.20;97.80
48208;DHT22;33997;53.278;9.708;2022-11-18T02:20:38;2.20;97.80
48208;DHT22;33997;53.278;9.708;2022-11-18T02:23:32;2.20;97.80
48208;DHT22;33997;53.278;9.708;2022-11-18T02:28:59;2.20;97.70
48208;DHT22;33997;53.278;9.708;2022-11-18T02:31:33;2.20;97.70
48208;DHT22;33997;53.278;9.708;2022-11-18T02:34:08;2.10;97.80
48208;DHT22;33997;53.278;9.708;2022-11-18T02:36:46;2.10;97.80
48208;DHT22;33997;53.278;9.708;2022-11-18T02:39:19;2.20;97.90
48208;DHT22;33997;53.278;9.708;2022-11-18T02:41:47;2.10;97.60
48208;DHT22;33997;53.278;9.708;2022-11-18T02:44:18;2.10;97.60
48208;DHT22;33997;53.278;9.708;2022-11-18T02:46:50;2.10;97.70
48208;DHT22;33997;53.278;9.708;2022-11-18T02:49:51;2.10;97.70
48208;DHT22;33997;53.278;9.708;2022-11-18T02:52:16;2.10;97.70
48208;DHT22;33997;53.278;9.708;2022-11-18T02:54:45;2.10;97.70
48208;DHT22;33997;53.278;9.708;2022-11-18T02:57:12;2.10;97.80
48208;DHT22;33997;53.278;9.708;2022-11-18T02:59:38;2.10;97.70
48208;DHT22;33997;53.278;9.708;2022-11-18T03:02:04;2.10;97.70
48208;DHT22;33997;53.278;9.708;2022-11-18T03:04:30;2.10;97.70
48208;DHT22;33997;53.278;9.708;2022-11-18T03:07:20;2.10;97.80
48208;DHT22;33997;53.278;9.708;2022-11-18T03:09:50;2.00;97.70
48208;DHT22;33997;53.278;9.708;2022-11-18T03:12:42;2.00;97.70
48208;DHT22;33997;53.278;9.708;2022-11-18T03:15:22;1.90;97.60
48208;DHT22;33997;53.278;9.708;2022-11-18T03:18:58;1.90;97.60
48208;DHT22;33997;53.278;9.708;2022-11-18T03:25:58;2.00;97.50
48208;DHT22;33997;53.278;9.708;2022-11-18T03:28:35;1.90;97.60
48208;DHT22;33997;53.278;9.708;2022-11-18T03:31:27;1.90;97.50
48208;DHT22;33997;53.278;9.708;2022-11-18T03:33:58;1.90;97.50
48208;DHT22;33997;53.278;9.708;2022-11-18T03:36:28;1.80;97.40
48208;DHT22;33997;53.278;9.708;2022-11-18T03:38:59;1.80;97.50
48208;DHT22;33997;53.278;9.708;2022-11-18T03:41:28;1.80;97.50
48208;DHT22;33997;53.278;9.708;2022-11-18T03:44:00;1.80;97.50
48208;DHT22;33997;53.278;9.708;2022-11-18T03:46:36;1.80;97.60
48208;DHT22;33997;53.278;9.708;2022-11-18T03:49:04;1.80;97.50
48208;DHT22;33997;53.278;9.708;2022-11-18T03:51:36;1.80;97.40
48208;DHT22;33997;53.278;9.708;2022-11-18T03:54:09;1.80;97.50
48208;DHT22;33997;53.278;9.708;2022-11-18T03:56:40;1.70;97.50
48208;DHT22;33997;53.278;9.708;2022-11-18T03:59:19;1.80;97.60
48208;DHT22;33997;53.278;9.708;2022-11-18T04:01:52;1.70;97.60
48208;DHT22;33997;53.278;9.708;2022-11-18T04:04:20;1.70;97.50
48208;DHT22;33997;53.278;9.708;2022-11-18T04:07:01;1.70;97.60
48208;DHT22;33997;53.278;9.708;2022-11-18T04:09:42;1.70;97.60
48208;DHT22;33997;53.278;9.708;2022-11-18T04:12:13;1.70;97.60
48208;DHT22;33997;53.278;9.708;2022-11-18T04:14:40;1.80;97.70
48208;DHT22;33997;53.278;9.708;2022-11-18T04:17:19;1.70;97.60
48208;DHT22;33997;53.278;9.708;2022-11-18T04:19:44;1.70;97.60
48208;DHT22;33997;53.278;9.708;2022-11-18T04:22:10;1.70;97.30
48208;DHT22;33997;53.278;9.708;2022-11-18T04:24:36;1.80;97.60
48208;DHT22;33997;53.278;9.708;2022-11-18T04:27:02;1.70;97.30
48208;DHT22;33997;53.278;9.708;2022-11-18T04:29:29;1.70;97.30
48208;DHT22;33997;53.278;9.708;2022-11-18T04:31:54;1.60;97.20
48208;DHT22;33997;53.278;9.708;2022-11-18T04:34:20;1.70;97.30
48208;DHT22;33997;53.278;9.708;2022-11-18T04:36:45;1.70;97.40
48208;DHT22;33997;53.278;9.708;2022-11-18T04:39:11;1.60;97.20
48208;DHT22;33997;53.278;9.708;2022-11-18T04:41:36;1.60;97.10
48208;DHT22;33997;53.278;9.708;2022-11-18T04:44:29;1.60;97.10
48208;DHT22;33997;53.278;9.708;2022-11-18T04:46:56;1.70;97.20
48208;DHT22;33997;53.278;9.708;2022-11-18T04:49:22;1.70;97.20
48208;DHT22;33997;53.278;9.708;2022-11-18T04:51:48;1.70;97.20
48208;DHT22;33997;53.278;9.708;2022-11-18T04:54:14;1.70;97.30
48208;DHT22;33997;53.278;9.708;2022-11-18T04:56:40;1.70;97.20
48208;DHT22;33997;53.278;9.708;2022-11-18T04:59:06;1.60;97.20
48208;DHT22;33997;53.278;9.708;2022-11-18T05:01:32;1.60;97.30
48208;DHT22;33997;53.278;9.708;2022-11-18T05:03:59;1.70;97.20
48208;DHT22;33997;53.278;9.708;2022-11-18T05:06:25;1.60;97.20
48208;DHT22;33997;53.278;9.708;2022-11-18T05:08:52;1.70;97.20
48208;DHT22;33997;53.278;9.708;2022-11-18T05:11:17;1.70;97.20
48208;DHT22;33997;53.278;9.708;2022-11-18T05:14:01;1.60;97.20
48208;DHT22;33997;53.278;9.708;2022-11-18T05:16:27;1.60;97.00
48208;DHT22;33997;53.278;9.708;2022-11-18T05:18:52;1.60;97.10
48208;DHT22;33997;53.278;9.708;2022-11-18T05:21:18;1.60;97.10
48208;DHT22;33997;53.278;9.708;2022-11-18T05:23:44;1.60;97.20
48208;DHT22;33997;53.278;9.708;2022-11-18T05:26:10;1.50;97.00
48208;DHT22;33997;53.278;9.708;2022-11-18T05:28:36;1.60;97.10
48208;DHT22;33997;53.278;9.708;2022-11-18T05:31:10;1.60;97.20
48208;DHT22;33997;53.278;9.708;2022-11-18T05:33:36;1.50;97.00
48208;DHT22;33997;53.278;9.708;2022-11-18T05:36:21;1.50;96.90
48208;DHT22;33997;53.278;9.708;2022-11-18T05:38:47;1.50;96.90
48208;DHT22;33997;53.278;9.708;2022-11-18T05:41:13;1.40;96.70
48208;DHT22;33997;53.278;9.708;2022-11-18T05:44:08;1.50;96.80
48208;DHT22;33997;53.278;9.708;2022-11-18T05:46:33;1.50;96.90
48208;DHT22;33997;53.278;9.708;2022-11-18T05:48:59;1.50;96.90
48208;DHT22;33997;53.278;9.708;2022-11-18T05:51:24;1.50;96.80
48208;DHT22;33997;53.278;9.708;2022-11-18T05:53:51;1.50;96.80
48208;DHT22;33997;53.278;9.708;2022-11-18T05:58:45;1.50;96.70
48208;DHT22;33997;53.278;9.708;2022-11-18T06:01:13;1.40;96.60
48208;DHT22;33997;53.278;9.708;2022-11-18T06:03:40;1.40;96.60
48208;DHT22;33997;53.278;9.708;2022-11-18T06:06:07;1.40;96.70
48208;DHT22;33997;53.278;9.708;2022-11-18T06:08:43;1.50;96.60
48208;DHT22;33997;53.278;9.708;2022-11-18T06:11:12;1.50;96.70
48208;DHT22;33997;53.278;9.708;2022-11-18T06:13:42;1.40;96.60
48208;DHT22;33997;53.278;9.708;2022-11-18T06:16:14;1.50;96.70
48208;DHT22;33997;53.278;9.708;2022-11-18T06:18:40;1.40;96.60
48208;DHT22;33997;53.278;9.708;2022-11-18T06:21:06;1.40;96.50
48208;DHT22;33997;53.278;9.708;2022-11-18T06:23:34;1.40;96.60
48208;DHT22;33997;53.278;9.708;2022-11-18T06:26:00;1.40;96.70
48208;DHT22;33997;53.278;9.708;2022-11-18T06:28:26;1.40;96.70
48208;DHT22;33997;53.278;9.708;2022-11-18T06:30:52;1.40;96.60
48208;DHT22;33997;53.278;9.708;2022-11-18T06:33:17;1.40;96.60
48208;DHT22;33997;53.278;9.708;2022-11-18T06:35:43;1.40;96.70
48208;DHT22;33997;53.278;9.708;2022-11-18T06:38:08;1.30;96.60
48208;DHT22;33997;53.278;9.708;2022-11-18T06:40:34;1.40;96.60
48208;DHT22;33997;53.278;9.708;2022-11-18T06:43:06;1.40;96.80
48208;DHT22;33997;53.278;9.708;2022-11-18T06:45:50;1.30;96.60
48208;DHT22;33997;53.278;9.708;2022-11-18T06:48:34;1.30;96.70
48208;DHT22;33997;53.278;9.708;2022-11-18T06:51:03;1.30;96.60
48208;DHT22;33997;53.278;9.708;2022-11-18T06:53:29;1.30;96.80
48208;DHT22;33997;53.278;9.708;2022-11-18T06:55:54;1.40;96.70
48208;DHT22;33997;53.278;9.708;2022-11-18T06:58:20;1.30;96.60
48208;DHT22;33997;53.278;9.708;2022-11-18T07:00:45;1.30;96.80
48208;DHT22;33997;53.278;9.708;2022-11-18T07:03:11;1.30;96.90
48208;DHT22;33997;53.278;9.708;2022-11-18T07:05:36;1.30;96.80
48208;DHT22;33997;53.278;9.708;2022-11-18T07:08:02;1.20;96.50
48208;DHT22;33997;53.278;9.708;2022-11-18T07:10:28;1.30;96.80
48208;DHT22;33997;53.278;9.708;2022-11-18T07:12:53;1.30;96.80
48208;DHT22;33997;53.278;9.708;2022-11-18T07:15:19;1.20;96.70
48208;DHT22;33997;53.278;9.708;2022-11-18T07:17:44;1.30;96.90
48208;DHT22;33997;53.278;9.708;2022-11-18T07:20:10;1.10;96.50
48208;DHT22;33997;53.278;9.708;2022-11-18T07:22:35;1.20;96.80
48208;DHT22;33997;53.278;9.708;2022-11-18T07:25:01;1.10;96.50
48208;DHT22;33997;53.278;9.708;2022-11-18T07:27:26;1.10;96.70
48208;DHT22;33997;53.278;9.708;2022-11-18T07:29:52;1.10;96.70
48208;DHT22;33997;53.278;9.708;2022-11-18T07:32:17;1.20;96.80
48208;DHT22;33997;53.278;9.708;2022-11-18T07:34:42;1.20;96.80
48208;DHT22;33997;53.278;9.708;2022-11-18T07:37:09;1.10;96.70
48208;DHT22;33997;53.278;9.708;2022-11-18T07:39:34;1.10;96.70
48208;DHT22;33997;53.278;9.708;2022-11-18T07:42:00;1.10;96.60
48208;DHT22;33997;53.278;9.708;2022-11-18T07:44:25;1.10;96.70
48208;DHT22;33997;53.278;9.708;2022-11-18T07:46:51;1.10;96.60
48208;DHT22;33997;53.278;9.708;2022-11-18T07:49:16;1.00;96.60
48208;DHT22;33997;53.278;9.708;2022-11-18T07:51:42;1.10;96.60
48208;DHT22;33997;53.278;9.708;2022-11-18T07:54:12;1.10;96.70
48208;DHT22;33997;53.278;9.708;2022-11-18T07:56:38;1.10;96.60
48208;DHT22;33997;53.278;9.708;2022-11-18T07:59:04;1.10;96.30
48208;DHT22;33997;53.278;9.708;2022-11-18T08:01:30;1.10;96.50
48208;DHT22;33997;53.278;9.708;2022-11-18T08:03:57;1.10;96.40
48208;DHT22;33997;53.278;9.708;2022-11-18T08:06:28;1.20;96.40
48208;DHT22;33997;53.278;9.708;2022-11-18T08:08:53;1.10;96.20
48208;DHT22;33997;53.278;9.708;2022-11-18T08:11:19;1.10;96.00
48208;DHT22;33997;53.278;9.708;2022-11-18T08:13:44;1.10;96.10
48208;DHT22;33997;53.278;9.708;2022-11-18T08:16:16;1.10;95.80
48208;DHT22;33997;53.278;9.708;2022-11-18T08:18:42;1.20;96.00
48208;DHT22;33997;53.278;9.708;2022-11-18T08:21:08;1.10;95.80
48208;DHT22;33997;53.278;9.708;2022-11-18T08:23:34;1.10;95.50
48208;DHT22;33997;53.278;9.708;2022-11-18T08:26:09;1.10;95.60
48208;DHT22;33997;53.278;9.708;2022-11-18T08:28:35;1.10;95.70
48208;DHT22;33997;53.278;9.708;2022-11-18T08:31:11;1.20;95.70
48208;DHT22;33997;53.278;9.708;2022-11-18T08:33:37;1.20;95.80
48208;DHT22;33997;53.278;9.708;2022-11-18T08:36:13;1.10;95.70
48208;DHT22;33997;53.278;9.708;2022-11-18T08:38:39;1.10;95.40
48208;DHT22;33997;53.278;9.708;2022-11-18T08:41:05;1.20;95.60
48208;DHT22;33997;53.278;9.708;2022-11-18T08:43:33;1.10;95.40
48208;DHT22;33997;53.278;9.708;2022-11-18T08:45:59;1.10;95.30
48208;DHT22;33997;53.278;9.708;2022-11-18T08:48:24;1.10;95.30
48208;DHT22;33997;53.278;9.708;2022-11-18T08:50:50;1.10;95.10
48208;DHT22;33997;53.278;9.708;2022-11-18T08:53:16;1.10;95.00
48208;DHT22;33997;53.278;9.708;2022-11-18T08:55:41;1.10;95.00
48208;DHT22;33997;53.278;9.708;2022-11-18T08:58:07;1.20;95.20
48208;DHT22;33997;53.278;9.708;2022-11-18T09:00:32;1.20;95.10
48208;DHT22;33997;53.278;9.708;2022-11-18T09:02:58;1.10;94.50
48208;DHT22;33997;53.278;9.708;2022-11-18T09:05:23;1.00;94.20
48208;DHT22;33997;53.278;9.708;2022-11-18T09:07:48;1.20;94.70
48208;DHT22;33997;53.278;9.708;2022-11-18T09:10:15;1.10;94.60
48208;DHT22;33997;53.278;9.708;2022-11-18T09:12:40;1.00;94.50
48208;DHT22;33997;53.278;9.708;2022-11-18T09:15:06;1.10;94.60
48208;DHT22;33997;53.278;9.708;2022-11-18T09:17:33;1.10;94.80
48208;DHT22;33997;53.278;9.708;2022-11-18T09:19:58;1.10;94.90
48208;DHT22;33997;53.278;9.708;2022-11-18T09:22:24;1.10;95.00
48208;DHT22;33997;53.278;9.708;2022-11-18T09:24:49;1.10;95.10
48208;DHT22;33997;53.278;9.708;2022-11-18T09:27:15;1.10;95.10
48208;DHT22;33997;53.278;9.708;2022-11-18T09:29:40;1.10;95.00
48208;DHT22;33997;53.278;9.708;2022-11-18T09:32:06;1.10;95.10
48208;DHT22;33997;53.278;9.708;2022-11-18T09:34:33;1.00;94.70
48208;DHT22;33997;53.278;9.708;2022-11-18T09:36:58;1.10;95.00
48208;DHT22;33997;53.278;9.708;2022-11-18T09:39:24;1.10;94.90
48208;DHT22;33997;53.278;9.708;2022-11-18T09:41:55;1.10;95.20
48208;DHT22;33997;53.278;9.708;2022-11-18T09:47:30;1.10;95.40
48208;DHT22;33997;53.278;9.708;2022-11-18T09:50:05;1.00;95.40
48208;DHT22;33997;53.278;9.708;2022-11-18T09:52:43;1.00;95.50
48208;DHT22;33997;53.278;9.708;2022-11-18T09:55:12;1.00;95.50
48208;DHT22;33997;53.278;9.708;2022-11-18T09:57:43;1.00;95.70
48208;DHT22;33997;53.278;9.708;2022-11-18T10:00:21;1.10;95.80
48208;DHT22;33997;53.278;9.708;2022-11-18T10:05:22;0.90;95.80
48208;DHT22;33997;53.278;9.708;2022-11-18T10:08:11;0.90;96.10
48208;DHT22;33997;53.278;9.708;2022-11-18T10:16:48;0.90;96.60
48208;DHT22;33997;53.278;9.708;2022-11-18T10:19:49;0.90;96.60
48208;DHT22;33997;53.278;9.708;2022-11-18T10:22:26;0.90;96.70
48208;DHT22;33997;53.278;9.708;2022-11-18T10:24:55;0.90;96.70
48208;DHT22;33997;53.278;9.708;2022-11-18T10:27:23;0.90;96.70
48208;DHT22;33997;53.278;9.708;2022-11-18T10:29:53;0.90;96.50
48208;DHT22;33997;53.278;9.708;2022-11-18T10:32:19;0.90;96.50
48208;DHT22;33997;53.278;9.708;2022-11-18T10:34:51;0.90;96.50
48208;DHT22;33997;53.278;9.708;2022-11-18T10:37:28;0.90;96.50
48208;DHT22;33997;53.278;9.708;2022-11-18T10:39:59;0.90;96.40
48208;DHT22;33997;53.278;9.708;2022-11-18T10:42:34;0.80;96.10
48208;DHT22;33997;53.278;9.708;2022-11-18T10:52:57;0.90;95.90
48208;DHT22;33997;53.278;9.708;2022-11-18T10:55:27;0.90;95.80
48208;DHT22;33997;53.278;9.708;2022-11-18T10:58:06;0.80;95.30
48208;DHT22;33997;53.278;9.708;2022-11-18T11:00:37;0.90;95.40
48208;DHT22;33997;53.278;9.708;2022-11-18T11:03:27;0.80;94.90
48208;DHT22;33997;53.278;9.708;2022-11-18T11:08:50;0.90;95.00
48208;DHT22;33997;53.278;9.708;2022-11-18T11:11:26;0.90;94.60
48208;DHT22;33997;53.278;9.708;2022-11-18T11:14:18;1.00;94.90
48208;DHT22;33997;53.278;9.708;2022-11-18T11:22:21;1.00;94.10
48208;DHT22;33997;53.278;9.708;2022-11-18T11:24:47;0.90;94.00
48208;DHT22;33997;53.278;9.708;2022-11-18T11:27:20;1.00;94.10
48208;DHT22;33997;53.278;9.708;2022-11-18T11:32:37;1.00;93.50
48208;DHT22;33997;53.278;9.708;2022-11-18T11:35:31;1.00;93.60
48208;DHT22;33997;53.278;9.708;2022-11-18T11:37:59;1.00;93.20
48208;DHT22;33997;53.278;9.708;2022-11-18T11:59:28;1.20;91.60
48208;DHT22;33997;53.278;9.708;2022-11-18T12:05:21;1.20;90.40
48208;DHT22;33997;53.278;9.708;2022-11-18T12:07:55;1.20;90.60
48208;DHT22;33997;53.278;9.708;2022-11-18T12:10:28;1.30;91.00
48208;DHT22;33997;53.278;9.708;2022-11-18T12:13:23;1.40;90.40
48208;DHT22;33997;53.278;9.708;2022-11-18T12:18:46;1.30;89.20
48208;DHT22;33997;53.278;9.708;2022-11-18T12:24:30;1.40;89.80
48208;DHT22;33997;53.278;9.708;2022-11-18T12:27:11;1.40;90.10
48208;DHT22;33997;53.278;9.708;2022-11-18T12:29:41;1.40;90.50
48208;DHT22;33997;53.278;9.708;2022-11-18T12:35:09;1.30;90.50
48208;DHT22;33997;53.278;9.708;2022-11-18T12:40:36;1.30;90.70
48208;DHT22;33997;53.278;9.708;2022-11-18T12:43:04;1.20;90.40
48208;DHT22;33997;53.278;9.708;2022-11-18T12:45:57;1.20;90.40
48208;DHT22;33997;53.278;9.708;2022-11-18T12:50:50;1.20;90.30
48208;DHT22;33997;53.278;9.708;2022-11-18T12:53:39;1.20;89.90
48208;DHT22;33997;53.278;9.708;2022-11-18T12:56:25;1.20;90.30
48208;DHT22;33997;53.278;9.708;2022-11-18T12:58:58;1.20;89.80
48208;DHT22;33997;53.278;9.708;2022-11-18T13:01:28;1.20;89.40
48208;DHT22;33997;53.278;9.708;2022-11-18T13:04:11;1.10;89.00
48208;DHT22;33997;53.278;9.708;2022-11-18T13:06:39;1.20;89.20
48208;DHT22;33997;53.278;9.708;2022-11-18T13:09:12;1.30;89.40
48208;DHT22;33997;53.278;9.708;2022-11-18T13:11:50;1.20;88.40
48208;DHT22;33997;53.278;9.708;2022-11-18T13:14:29;1.30;89.10
48208;DHT22;33997;53.278;9.708;2022-11-18T13:17:31;1.20;88.80
48208;DHT22;33997;53.278;9.708;2022-11-18T13:20:33;1.20;88.90
48208;DHT22;33997;53.278;9.708;2022-11-18T13:25:53;1.10;88.60
48208;DHT22;33997;53.278;9.708;2022-11-18T13:30:51;1.20;88.90
48208;DHT22;33997;53.278;9.708;2022-11-18T13:33:18;1.20;88.80
48208;DHT22;33997;53.278;9.708;2022-11-18T13:35:44;1.20;88.70
48208;DHT22;33997;53.278;9.708;2022-11-18T13:38:19;1.10;87.80
48208;DHT22;33997;53.278;9.708;2022-11-18T13:40:47;1.20;88.60
48208;DHT22;33997;53.278;9.708;2022-11-18T13:43:36;1.10;87.80
48208;DHT22;33997;53.278;9.708;2022-11-18T13:46:08;1.10;88.60
48208;DHT22;33997;53.278;9.708;2022-11-18T13:48:51;1.10;88.70
48208;DHT22;33997;53.278;9.708;2022-11-18T13:51:18;1.10;88.50
48208;DHT22;33997;53.278;9.708;2022-11-18T13:53:44;1.20;89.10
48208;DHT22;33997;53.278;9.708;2022-11-18T13:56:23;1.20;89.30
48208;DHT22;33997;53.278;9.708;2022-11-18T14:01:21;1.10;88.50
48208;DHT22;33997;53.278;9.708;2022-11-18T14:03:59;1.20;88.80
48208;DHT22;33997;53.278;9.708;2022-11-18T14:12:04;1.10;88.10
48208;DHT22;33997;53.278;9.708;2022-11-18T14:14:33;1.10;86.90
48208;DHT22;33997;53.278;9.708;2022-11-18T14:17:23;1.00;87.00
48208;DHT22;33997;53.278;9.708;2022-11-18T14:19:51;1.10;86.90
48208;DHT22;33997;53.278;9.708;2022-11-18T14:22:22;1.00;85.90
48208;DHT22;33997;53.278;9.708;2022-11-18T14:25:18;1.00;86.70
48208;DHT22;33997;53.278;9.708;2022-11-18T14:33:23;1.00;86.10
48208;DHT22;33997;53.278;9.708;2022-11-18T14:36:00;1.00;86.20
48208;DHT22;33997;53.278;9.708;2022-11-18T14:38:46;1.00;85.90
48208;DHT22;33997;53.278;9.708;2022-11-18T14:41:15;1.00;85.40
48208;DHT22;33997;53.278;9.708;2022-11-18T14:43:41;0.90;85.60
48208;DHT22;33997;53.278;9.708;2022-11-18T14:46:16;0.90;85.80
48208;DHT22;33997;53.278;9.708;2022-11-18T14:48:43;1.00;86.60
48208;DHT22;33997;53.278;9.708;2022-11-18T14:51:14;0.90;85.90
48208;DHT22;33997;53.278;9.708;2022-11-18T14:53:40;0.90;86.10
48208;DHT22;33997;53.278;9.708;2022-11-18T14:56:27;0.90;86.00
48208;DHT22;33997;53.278;9.708;2022-11-18T14:58:53;0.90;85.90
48208;DHT22;33997;53.278;9.708;2022-11-18T15:01:19;0.90;86.00
48208;DHT22;33997;53.278;9.708;2022-11-18T15:03:44;0.90;85.90
48208;DHT22;33997;53.278;9.708;2022-11-18T15:06:14;0.90;86.60
48208;DHT22;33997;53.278;9.708;2022-11-18T15:08:42;0.80;85.80
48208;DHT22;33997;53.278;9.708;2022-11-18T15:11:07;0.80;86.30
48208;DHT22;33997;53.278;9.708;2022-11-18T15:13:33;0.80;86.40
48208;DHT22;33997;53.278;9.708;2022-11-18T15:15:59;0.80;86.10
48208;DHT22;33997;53.278;9.708;2022-11-18T15:18:25;0.70;86.50
48208;DHT22;33997;53.278;9.708;2022-11-18T15:20:51;0.70;86.80
48208;DHT22;33997;53.278;9.708;2022-11-18T15:23:16;0.60;86.30
48208;DHT22;33997;53.278;9.708;2022-11-18T15:25:42;0.50;86.90
48208;DHT22;33997;53.278;9.708;2022-11-18T15:28:10;0.50;87.10
48208;DHT22;33997;53.278;9.708;2022-11-18T15:30:36;0.30;87.40
48208;DHT22;33997;53.278;9.708;2022-11-18T15:33:01;0.30;87.60
48208;DHT22;33997;53.278;9.708;2022-11-18T15:35:27;0.20;87.60
48208;DHT22;33997;53.278;9.708;2022-11-18T15:37:52;0.10;87.90
48208;DHT22;33997;53.278;9.708;2022-11-18T15:40:18;0.00;88.00
48208;DHT22;33997;53.278;9.708;2022-11-18T15:42:43;0.00;88.50
48208;DHT22;33997;53.278;9.708;2022-11-18T15:45:09;-3276.70;88.90
48208;DHT22;33997;53.278;9.708;2022-11-18T15:47:34;-3276.70;89.40
48208;DHT22;33997;53.278;9.708;2022-11-18T15:50:00;-3276.70;89.60
48208;DHT22;33997;53.278;9.708;2022-11-18T15:52:25;-3276.60;89.50
48208;DHT22;33997;53.278;9.708;2022-11-18T15:54:53;-3276.60;89.30
48208;DHT22;33997;53.278;9.708;2022-11-18T15:57:18;-3276.50;89.70
48208;DHT22;33997;53.278;9.708;2022-11-18T15:59:44;-3276.50;90.10
48208;DHT22;33997;53.278;9.708;2022-11-18T16:02:09;-3276.40;90.20
48208;DHT22;33997;53.278;9.708;2022-11-18T16:04:35;-3276.40;90.50
48208;DHT22;33997;53.278;9.708;2022-11-18T16:07:01;-3276.40;90.40
48208;DHT22;33997;53.278;9.708;2022-11-18T16:09:27;-3276.20;90.60
48208;DHT22;33997;53.278;9.708;2022-11-18T16:12:12;-3276.30;90.70
48208;DHT22;33997;53.278;9.708;2022-11-18T16:14:56;-3276.20;90.80
48208;DHT22;33997;53.278;9.708;2022-11-18T16:17:42;-3276.10;91.10
48208;DHT22;33997;53.278;9.708;2022-11-18T16:20:07;-3276.00;91.30
48208;DHT22;33997;53.278;9.708;2022-11-18T16:22:33;-3276.00;91.50
48208;DHT22;33997;53.278;9.708;2022-11-18T16:24:59;-3276.00;91.70
48208;DHT22;33997;53.278;9.708;2022-11-18T16:27:24;-3275.90;91.90
48208;DHT22;33997;53.278;9.708;2022-11-18T16:29:50;-3275.80;92.10
48208;DHT22;33997;53.278;9.708;2022-11-18T16:32:15;-3275.80;92.30
48208;DHT22;33997;53.278;9.708;2022-11-18T16:34:41;-3275.80;92.50
48208;DHT22;33997;53.278;9.708;2022-11-18T16:37:07;-3275.80;92.70
48208;DHT22;33997;53.278;9.708;2022-11-18T16:39:32;-3275.70;92.70
48208;DHT22;33997;53.278;9.708;2022-11-18T16:42:00;-3275.60;92.80
48208;DHT22;33997;53.278;9.708;2022-11-18T16:44:26;-3275.60;93.00
48208;DHT22;33997;53.278;9.708;2022-11-18T16:46:53;-3275.60;93.10
48208;DHT22;33997;53.278;9.708;2022-11-18T16:49:22;-3275.50;93.20
48208;DHT22;33997;53.278;9.708;2022-11-18T16:51:49;-3275.60;93.40
48208;DHT22;33997;53.278;9.708;2022-11-18T16:54:23;-3275.50;93.30
48208;DHT22;33997;53.278;9.708;2022-11-18T16:56:50;-3275.50;93.50
48208;DHT22;33997;53.278;9.708;2022-11-18T16:59:23;-3275.50;93.80
48208;DHT22;33997;53.278;9.708;2022-11-18T17:01:50;-3275.50;93.70
48208;DHT22;33997;53.278;9.708;2022-11-18T17:04:16;-3275.40;93.70
48208;DHT22;33997;53.278;9.708;2022-11-18T17:06:42;-3275.30;93.80
48208;DHT22;33997;53.278;9.708;2022-11-18T17:09:16;-3275.40;94.10
48208;DHT22;33997;53.278;9.708;2022-11-18T17:11:42;-3275.30;94.10
48208;DHT22;33997;53.278;9.708;2022-11-18T17:14:08;-3275.20;94.20
48208;DHT22;33997;53.278;9.708;2022-11-18T17:16:34;-3275.30;94.50
48208;DHT22;33997;53.278;9.708;2022-11-18T17:18:59;-3275.40;94.60
48208;DHT22;33997;53.278;9.708;2022-11-18T17:21:26;-3275.40;94.50
48208;DHT22;33997;53.278;9.708;2022-11-18T17:23:52;-3275.40;94.50
48208;DHT22;33997;53.278;9.708;2022-11-18T17:26:20;-3275.40;94.30
48208;DHT22;33997;53.278;9.708;2022-11-18T17:28:46;-3275.40;94.30
48208;DHT22;33997;53.278;9.708;2022-11-18T17:31:14;-3275.40;94.40
48208;DHT22;33997;53.278;9.708;2022-11-18T17:33:40;-3275.40;94.20
48208;DHT22;33997;53.278;9.708;2022-11-18T17:36:09;-3275.40;94.30